Time;durP1;ratioP1;P1;durP2;ratioP2;P2;SDS_P1;SDS_P2;PMS_P1;PMS_P2;Temp;Humidity;BMP_temperature;BMP_pressure;BME280_temperature;BME280_humidity;BME280_pressure;Samples;Min_cycle;Max_cycle;Signal;HPM_P1;HPM_P2
2021/07/16 00:00:53;;;;;;;16.23;5.22;;;;;;;16.48;75.72;102283.63;6127809;23;20077;-83
2021/07/16 00:03:19;;;;;;;16.50;5.43;;;;;;;16.52;75.68;102288.13;6127883;23;20021;-83
2021/07/16 00:05:44;;;;;;;14.15;5.88;;;;;;;16.47;76.03;102286.28;6127953;23;20010;-89
2021/07/16 00:08:10;;;;;;;13.57;5.30;;;;;;;16.47;75.80;102284.50;6129184;23;20005;-82
2021/07/16 00:10:35;;;;;;;13.75;5.82;;;;;;;16.44;75.89;102288.84;6130357;23;20017;-86
2021/07/16 00:13:01;;;;;;;15.10;5.57;;;;;;;16.44;75.73;102284.47;6104196;23;20315;-84
2021/07/16 00:15:26;;;;;;;17.42;6.22;;;;;;;16.42;75.46;102280.88;6129657;23;20009;-83
2021/07/16 00:17:52;;;;;;;17.33;6.15;;;;;;;16.42;75.78;102280.88;6129219;23;20006;-85
2021/07/16 00:20:38;;;;;;;24.05;6.75;;;;;;;16.38;75.20;102279.03;6129693;23;20433;-87
2021/07/16 00:23:03;;;;;;;25.15;6.82;;;;;;;16.42;75.09;102280.00;6129742;23;20081;-84
2021/07/16 00:25:29;;;;;;;18.77;6.15;;;;;;;16.40;74.89;102284.38;6129960;23;20394;-84
2021/07/16 00:27:54;;;;;;;13.93;6.53;;;;;;;16.37;75.14;102286.97;6104014;23;20011;-88
2021/07/16 00:30:20;;;;;;;15.80;6.25;;;;;;;16.37;74.97;102286.97;6130303;23;20037;-82
2021/07/16 00:32:45;;;;;;;17.15;5.78;;;;;;;16.38;74.45;102289.66;6103102;23;20333;-83
2021/07/16 00:35:11;;;;;;;21.65;5.68;;;;;;;16.39;74.72;102299.44;6103439;23;20097;-85
2021/07/16 00:37:57;;;;;;;15.82;5.78;;;;;;;16.37;75.15;102300.28;6128790;23;20065;-78
2021/07/16 00:40:22;;;;;;;20.88;6.25;;;;;;;16.34;74.87;102298.47;6128808;23;20080;-83
2021/07/16 00:42:48;;;;;;;16.60;6.07;;;;;;;16.30;73.90;102296.63;6130649;23;20475;-83
2021/07/16 00:45:15;;;;;;;24.00;6.32;;;;;;;16.28;74.37;102309.88;6131658;23;20030;-84
2021/07/16 00:48:01;;;;;;;22.55;7.25;;;;;;;16.28;74.41;102311.66;6131358;23;20002;-81
2021/07/16 00:50:52;;;;;;;19.10;6.60;;;;;;;16.19;74.26;102307.94;6133654;23;20429;-84
2021/07/16 00:53:38;;;;;;;20.05;6.80;;;;;;;16.15;74.27;102311.41;6132821;23;20018;-77
2021/07/16 00:56:04;;;;;;;13.52;6.85;;;;;;;16.13;74.50;102315.81;6130543;23;20038;-79
2021/07/16 00:58:49;;;;;;;21.25;7.03;;;;;;;16.11;74.29;102314.88;6135507;23;20077;-85
2021/07/16 01:01:15;;;;;;;16.60;6.35;;;;;;;16.14;73.76;102301.69;6134570;23;20018;-85
2021/07/16 01:03:41;;;;;;;17.55;7.68;;;;;;;16.11;73.36;102301.63;6131215;23;20017;-83
2021/07/16 01:06:06;;;;;;;17.42;6.63;;;;;;;16.12;73.42;102307.84;6130616;23;20016;-79
2021/07/16 01:08:32;;;;;;;19.10;6.85;;;;;;;16.12;73.99;102311.38;6128622;23;20006;-83
2021/07/16 01:10:57;;;;;;;17.02;6.78;;;;;;;16.10;73.88;102317.53;6129542;23;20010;-84
2021/07/16 01:13:25;;;;;;;24.70;6.65;;;;;;;16.07;73.89;102315.72;6129473;23;20005;-84
2021/07/16 01:15:51;;;;;;;21.63;6.45;;;;;;;16.08;73.91;102311.31;6129494;23;20033;-85
2021/07/16 01:18:17;;;;;;;19.55;5.93;;;;;;;16.04;73.64;102315.66;6103750;23;20136;-82
2021/07/16 01:20:44;;;;;;;16.55;5.70;;;;;;;16.01;73.10;102315.63;6128712;23;20002;-78
2021/07/16 01:23:16;;;;;;;15.05;6.53;;;;;;;16.00;72.93;102320.00;6128924;23;20081;-79
2021/07/16 01:25:41;;;;;;;13.80;5.25;;;;;;;16.02;73.30;102314.75;6129236;23;20053;-88
2021/07/16 01:28:07;;;;;;;18.75;6.10;;;;;;;16.00;73.33;102316.47;6128868;23;20325;-80
2021/07/16 01:30:53;;;;;;;21.90;5.38;;;;;;;16.01;73.48;102323.59;6128791;23;20008;-84
2021/07/16 01:33:21;;;;;;;18.27;6.20;;;;;;;16.00;73.45;102320.00;6129959;23;20341;-84
2021/07/16 01:35:47;;;;;;;16.38;5.88;;;;;;;16.01;73.81;102326.25;6129145;23;20432;-83
2021/07/16 01:38:13;;;;;;;21.60;6.03;;;;;;;15.96;73.36;102325.25;6129915;23;20061;-78
2021/07/16 01:40:39;;;;;;;18.05;5.78;;;;;;;15.90;73.49;102323.38;6127618;23;20306;-82
2021/07/16 01:43:25;;;;;;;22.60;6.70;;;;;;;15.92;73.04;102320.75;6128138;23;20014;-83
2021/07/16 01:45:51;;;;;;;20.02;6.57;;;;;;;15.92;73.62;102321.63;6128481;23;20010;-79
2021/07/16 01:48:36;;;;;;;22.83;5.78;;;;;;;15.90;73.20;102333.09;6129478;23;20426;-77
2021/07/16 01:51:01;;;;;;;15.75;5.57;;;;;;;15.91;73.09;102319.88;6128604;23;20010;-86
2021/07/16 01:53:27;;;;;;;20.20;6.45;;;;;;;15.89;73.01;102320.72;6128680;23;20013;-81
2021/07/16 01:55:52;;;;;;;13.70;5.30;;;;;;;15.85;71.88;102328.59;6128772;23;20441;-87
2021/07/16 01:58:18;;;;;;;17.25;6.32;;;;;;;15.83;71.87;102319.72;6129417;23;20012;-78
2021/07/16 02:00:47;;;;;;;17.75;5.15;;;;;;;15.85;71.97;102320.63;6129320;23;20002;-83
2021/07/16 02:03:15;;;;;;;14.82;5.82;;;;;;;15.83;71.78;102324.16;6129064;23;20042;-84
2021/07/16 02:05:43;;;;;;;18.30;5.78;;;;;;;15.79;72.07;102325.81;6129207;23;20036;-84
2021/07/16 02:08:28;;;;;;;22.58;6.80;;;;;;;15.79;71.77;102325.81;6127907;23;20036;-78
2021/07/16 02:11:15;;;;;;;18.50;5.13;;;;;;;15.80;72.03;102327.66;6101455;23;20014;-81
2021/07/16 02:13:41;;;;;;;14.30;4.78;;;;;;;15.79;72.26;102327.56;6103087;23;20005;-79
2021/07/16 02:16:06;;;;;;;16.83;6.50;;;;;;;15.75;72.61;102329.28;6128681;23;20009;-82
2021/07/16 02:18:33;;;;;;;18.42;6.57;;;;;;;15.72;72.77;102331.88;6128914;23;20018;-79
2021/07/16 02:20:59;;;;;;;22.80;6.10;;;;;;;15.71;72.71;102329.16;6129425;23;20006;-76
2021/07/16 02:23:28;;;;;;;19.55;5.82;;;;;;;15.68;72.94;102330.91;6129907;23;20010;-77
2021/07/16 02:25:54;;;;;;;23.60;6.07;;;;;;;15.67;73.23;102330.88;6104169;23;20006;-86
2021/07/16 02:28:46;;;;;;;10.75;5.05;;;;;;;15.66;72.98;102339.72;6129824;23;20033;-81
2021/07/16 02:31:32;;;;;;;16.55;4.85;;;;;;;15.64;72.70;102342.34;6127863;23;20426;-79
2021/07/16 02:33:58;;;;;;;14.55;4.80;;;;;;;15.66;72.84;102337.94;6128188;23;20433;-85
2021/07/16 02:36:44;;;;;;;21.65;6.03;;;;;;;15.60;72.95;102342.22;6101988;23;20098;-85
2021/07/16 02:39:09;;;;;;;17.40;4.85;;;;;;;15.58;72.91;102336.88;6128455;23;20102;-80
2021/07/16 02:41:34;;;;;;;17.50;4.63;;;;;;;15.58;72.53;102343.97;6128471;23;20426;-82
2021/07/16 02:44:00;;;;;;;18.20;4.72;;;;;;;15.55;73.60;102346.56;6129016;23;20002;-80
2021/07/16 02:46:25;;;;;;;13.27;4.75;;;;;;;15.55;73.37;102341.25;6129072;23;20005;-86
2021/07/16 02:48:51;;;;;;;17.33;4.50;;;;;;;15.51;72.97;102330.56;6128727;23;20028;-83
2021/07/16 02:51:16;;;;;;;16.85;4.85;;;;;;;15.50;73.04;102331.47;6128538;23;20014;-80
2021/07/16 02:53:42;;;;;;;21.05;4.88;;;;;;;15.50;73.17;102328.81;6128473;23;20044;-88
2021/07/16 02:56:08;;;;;;;18.88;6.05;;;;;;;15.49;73.86;102328.75;6128674;23;20053;-85
2021/07/16 02:58:33;;;;;;;19.77;5.03;;;;;;;15.46;73.62;102332.25;6127583;23;20006;-83
2021/07/16 03:00:59;;;;;;;11.80;4.80;;;;;;;15.48;74.01;102341.13;6129556;23;20432;-84
2021/07/16 03:03:26;;;;;;;18.17;5.38;;;;;;;15.48;73.74;102330.50;6129410;23;20001;-82
2021/07/16 03:05:51;;;;;;;13.25;4.78;;;;;;;15.45;73.91;102325.16;6128800;23;20452;-84
2021/07/16 03:08:17;;;;;;;19.48;4.93;;;;;;;15.49;73.79;102332.31;6128614;23;20010;-85
2021/07/16 03:10:46;;;;;;;16.10;4.80;;;;;;;15.47;74.34;102323.41;6128036;23;20084;-84
2021/07/16 03:13:14;;;;;;;22.65;4.60;;;;;;;15.46;74.29;102326.94;6102779;23;20012;-83
2021/07/16 03:15:40;;;;;;;19.70;4.75;;;;;;;15.48;74.30;102325.22;6128557;23;20045;-83
2021/07/16 03:18:06;;;;;;;32.65;5.85;;;;;;;15.52;73.65;102340.31;6128017;23;20010;-77
2021/07/16 03:20:37;;;;;;;19.83;4.80;;;;;;;15.54;74.04;102339.47;6128012;23;20006;-86
2021/07/16 03:23:24;;;;;;;27.30;4.85;;;;;;;15.49;73.90;102324.34;6127750;23;20022;-81
2021/07/16 03:25:50;;;;;;;17.17;4.82;;;;;;;15.56;73.22;102327.13;6126576;23;20017;-84
2021/07/16 03:28:15;;;;;;;20.02;5.22;;;;;;;15.55;73.27;102330.66;6127809;23;20452;-82
2021/07/16 03:30:41;;;;;;;21.50;4.93;;;;;;;15.55;73.42;102330.66;6128786;23;20116;-84
2021/07/16 03:33:07;;;;;;;24.63;4.93;;;;;;;15.57;73.21;102334.22;6127921;23;20425;-81
2021/07/16 03:35:33;;;;;;;18.20;4.35;;;;;;;15.50;72.62;102328.81;6127683;23;20044;-86
2021/07/16 03:37:58;;;;;;;15.95;5.10;;;;;;;15.53;73.04;102338.56;6128317;23;20333;-77
2021/07/16 03:40:28;;;;;;;19.83;5.13;;;;;;;15.53;73.62;102338.56;6128986;23;20029;-82
2021/07/16 03:42:53;;;;;;;20.05;5.57;;;;;;;15.57;73.28;102334.22;6129508;23;20069;-79
2021/07/16 03:45:19;;;;;;;16.27;4.85;;;;;;;15.56;73.42;102332.41;6131204;23;20023;-85
2021/07/16 03:47:46;;;;;;;22.60;5.07;;;;;;;15.56;73.62;102340.38;6131134;23;20002;-84
2021/07/16 03:50:14;;;;;;;24.10;4.82;;;;;;;15.53;73.86;102327.94;6106155;23;20010;-83
2021/07/16 03:52:39;;;;;;;16.40;5.05;;;;;;;15.56;74.49;102333.34;6132968;23;20029;-83
2021/07/16 03:55:25;;;;;;;17.00;4.43;;;;;;;15.56;74.36;102337.72;6132271;23;20010;-89
2021/07/16 03:57:51;;;;;;;16.52;4.35;;;;;;;15.53;74.43;102333.25;6130216;23;20010;-78
2021/07/16 04:00:27;;;;;;;17.63;5.32;;;;;;;15.54;75.47;102334.16;6132485;23;20053;-83
2021/07/16 04:02:57;;;;;;;23.33;4.18;;;;;;;15.50;75.08;102334.09;6133299;23;20006;-82
2021/07/16 04:05:24;;;;;;;23.50;5.15;;;;;;;15.55;74.75;102333.31;6133095;23;20014;-85
2021/07/16 04:07:51;;;;;;;23.20;4.82;;;;;;;15.54;74.78;102335.03;6131970;23;20081;-81
2021/07/16 04:10:21;;;;;;;29.55;4.63;;;;;;;15.58;74.32;102334.25;6129862;23;20014;-80
2021/07/16 04:12:51;;;;;;;17.63;5.25;;;;;;;15.57;74.91;102342.16;6105195;23;20530;-85
2021/07/16 04:15:16;;;;;;;17.17;4.43;;;;;;;15.56;74.73;102353.63;6132231;23;20017;-85
2021/07/16 04:17:42;;;;;;;22.20;5.22;;;;;;;15.58;74.92;102354.59;6130908;23;20089;-87
2021/07/16 04:20:29;;;;;;;19.15;4.40;;;;;;;15.57;75.11;102352.78;6131004;23;20017;-78
2021/07/16 04:22:56;;;;;;;21.88;5.43;;;;;;;15.58;75.08;102351.94;6130328;23;20010;-89
2021/07/16 04:25:24;;;;;;;27.42;5.13;;;;;;;15.58;75.10;102352.81;6129369;23;20006;-75
2021/07/16 04:28:00;;;;;;;20.83;4.22;;;;;;;15.62;74.50;102353.78;6129813;23;19998;-80
2021/07/16 04:30:26;;;;;;;22.70;4.57;;;;;;;15.60;74.73;102353.75;6131194;23;20338;-83
2021/07/16 04:33:13;;;;;;;24.20;4.90;;;;;;;15.64;74.60;102358.25;6131150;23;20010;-85
2021/07/16 04:35:40;;;;;;;15.30;4.55;;;;;;;15.68;74.08;102352.16;6129736;23;20016;-85
2021/07/16 04:38:05;;;;;;;20.55;4.95;;;;;;;15.67;74.54;102352.13;6129864;23;20425;-83
2021/07/16 04:40:32;;;;;;;16.52;3.78;;;;;;;15.67;73.55;102349.47;6130424;23;20026;-87
2021/07/16 04:42:58;;;;;;;21.13;4.80;;;;;;;15.71;73.78;102348.66;6104519;23;20379;-81
2021/07/16 04:45:24;;;;;;;19.58;5.03;;;;;;;15.74;73.57;102343.41;6129677;23;20009;-78
2021/07/16 04:47:50;;;;;;;15.80;4.32;;;;;;;15.75;74.26;102345.19;6130143;23;20009;-87
2021/07/16 04:50:18;;;;;;;23.35;4.28;;;;;;;15.81;74.36;102344.44;6129578;23;20006;-84
2021/07/16 04:52:46;;;;;;;22.40;4.32;;;;;;;15.88;74.10;102348.13;6129262;23;20017;-81
2021/07/16 04:55:32;;;;;;;18.52;4.53;;;;;;;15.88;73.54;102351.66;6129235;23;20068;-81
2021/07/16 04:57:58;;;;;;;22.67;4.32;;;;;;;15.90;73.60;102356.97;6129388;23;20025;-86
2021/07/16 05:00:23;;;;;;;25.65;4.75;;;;;;;15.89;73.73;102352.56;6128921;23;20456;-82
2021/07/16 05:02:48;;;;;;;19.98;4.00;;;;;;;15.94;73.61;102356.19;6128349;23;20002;-79
2021/07/16 05:05:14;;;;;;;30.67;4.20;;;;;;;15.93;73.84;102359.72;6128922;23;20009;-81
2021/07/16 05:07:40;;;;;;;21.58;3.88;;;;;;;15.91;73.99;102354.38;6129420;23;20006;-82
2021/07/16 05:10:07;;;;;;;24.35;4.35;;;;;;;15.91;74.07;102362.34;6129708;23;20014;-82
2021/07/16 05:12:52;;;;;;;20.42;4.60;;;;;;;15.89;74.25;102352.56;6129200;23;20038;-83
2021/07/16 05:15:18;;;;;;;20.17;4.63;;;;;;;15.92;74.15;102365.88;6127835;23;20021;-84
2021/07/16 05:17:43;;;;;;;21.95;4.03;;;;;;;15.92;73.82;102363.22;6129488;23;20014;-88
2021/07/16 05:20:28;;;;;;;23.55;4.63;;;;;;;15.87;73.88;102370.22;6128926;23;20033;-86
2021/07/16 05:22:55;;;;;;;23.13;5.30;;;;;;;15.84;74.17;102371.97;6128792;23;20014;-81
2021/07/16 05:25:23;;;;;;;20.63;3.83;;;;;;;15.82;74.68;102370.13;6104315;23;20011;-83
2021/07/16 05:27:48;;;;;;;24.98;4.75;;;;;;;15.80;74.77;102375.41;6128443;23;20006;-84
2021/07/16 05:30:15;;;;;;;17.50;5.47;;;;;;;15.81;74.60;102379.84;6128310;23;20098;-77
2021/07/16 05:32:41;;;;;;;20.08;4.03;;;;;;;15.83;74.49;102375.47;6128695;23;20029;-76
2021/07/16 05:35:07;;;;;;;22.83;4.07;;;;;;;15.89;73.81;102373.81;6128905;23;20414;-82
2021/07/16 05:37:33;;;;;;;25.58;4.90;;;;;;;15.92;74.56;102379.16;6078764;23;20010;-82
2021/07/16 05:40:18;;;;;;;21.55;3.97;;;;;;;16.00;74.41;102378.44;6078272;23;20014;-87
2021/07/16 05:43:05;;;;;;;30.15;5.00;;;;;;;16.02;74.10;102378.47;6128359;23;20310;-82
2021/07/16 05:45:30;;;;;;;21.75;3.70;;;;;;;16.17;73.60;102383.19;6128655;23;20477;-85
2021/07/16 05:48:36;;;;;;;18.90;3.95;;;;;;;16.28;72.82;102380.72;6129193;23;20010;-76
2021/07/16 05:51:22;;;;;;;22.52;4.35;;;;;;;16.38;72.90;102373.78;6129224;23;20418;-83
2021/07/16 05:53:47;;;;;;;21.60;3.88;;;;;;;16.47;72.52;102377.50;6128633;23;20014;-82
2021/07/16 05:56:12;;;;;;;17.92;3.25;;;;;;;16.52;70.74;102367.84;6129880;23;20058;-79
2021/07/16 05:58:38;;;;;;;15.52;4.38;;;;;;;16.64;71.19;102382.19;6128865;23;20001;-83
2021/07/16 06:01:03;;;;;;;20.67;3.75;;;;;;;16.63;70.73;102376.00;6128245;23;20006;-84
2021/07/16 06:03:29;;;;;;;22.20;4.25;;;;;;;16.64;71.98;102385.75;6129373;23;20010;-81
2021/07/16 06:05:54;;;;;;;37.40;5.05;;;;;;;16.69;72.17;102388.47;6128481;23;20029;-82
2021/07/16 06:08:20;;;;;;;20.85;4.80;;;;;;;16.65;72.13;102389.31;6128542;23;20010;-80
2021/07/16 06:10:45;;;;;;;22.15;4.78;;;;;;;16.61;71.33;102395.44;6128340;23;20338;-85
2021/07/16 06:13:11;;;;;;;18.02;3.75;;;;;;;16.62;70.72;102386.59;6129208;23;20425;-86
2021/07/16 06:15:37;;;;;;;23.95;4.50;;;;;;;16.54;70.92;102390.91;6104312;23;20460;-81
2021/07/16 06:18:02;;;;;;;25.08;4.10;;;;;;;16.52;71.11;102405.03;6128936;23;20018;-80
2021/07/16 06:20:28;;;;;;;17.92;3.88;;;;;;;16.52;71.54;102401.47;6129510;23;20005;-78
2021/07/16 06:22:53;;;;;;;21.15;4.80;;;;;;;16.56;71.92;102402.44;6129141;23;20509;-83
2021/07/16 06:25:19;;;;;;;26.00;4.35;;;;;;;16.58;71.58;102398.94;6129668;23;20429;-84
2021/07/16 06:27:46;;;;;;;22.73;4.13;;;;;;;16.62;71.42;102400.78;6130801;23;20306;-79
2021/07/16 06:30:12;;;;;;;24.33;4.13;;;;;;;16.98;69.77;102406.66;6131512;23;20040;-85
2021/07/16 06:32:38;;;;;;;20.33;4.45;;;;;;;17.36;69.11;102395.69;6129634;23;20006;-84
2021/07/16 06:35:25;;;;;;;25.65;4.13;;;;;;;17.63;67.73;102405.78;6131310;23;20088;-83
2021/07/16 06:37:51;;;;;;;23.90;4.68;;;;;;;18.01;66.45;102401.81;6128326;23;20013;-86
2021/07/16 06:40:16;;;;;;;21.70;4.90;;;;;;;18.17;65.90;102402.88;6127871;23;20081;-83
2021/07/16 06:43:08;;;;;;;19.33;3.88;;;;;;;18.41;65.46;102391.56;6102392;23;20017;-83
2021/07/16 06:45:33;;;;;;;20.05;4.47;;;;;;;18.35;65.16;102402.16;6128287;23;20010;-85
2021/07/16 06:48:21;;;;;;;24.13;3.70;;;;;;;18.31;65.70;102405.66;6128204;23;20408;-88
2021/07/16 06:50:47;;;;;;;20.67;4.05;;;;;;;18.26;65.51;102410.03;6127388;23;20103;-77
2021/07/16 06:53:12;;;;;;;18.98;4.13;;;;;;;18.44;65.81;102407.56;6128794;23;20111;-83
2021/07/16 06:55:38;;;;;;;27.00;4.85;;;;;;;18.40;65.02;102418.19;6128477;23;20013;-81
2021/07/16 06:58:03;;;;;;;15.48;3.90;;;;;;;18.25;64.67;102419.81;6126936;23;20009;-85
2021/07/16 07:00:31;;;;;;;25.58;4.50;;;;;;;18.23;64.76;102413.59;6129650;23;20002;-83
2021/07/16 07:02:57;;;;;;;28.52;4.40;;;;;;;18.19;65.19;102418.00;6129745;23;20429;-88
2021/07/16 07:05:24;;;;;;;20.45;3.35;;;;;;;17.99;64.83;102419.56;6128900;23;20014;-82
2021/07/16 07:08:12;;;;;;;17.55;4.32;;;;;;;18.05;65.70;102419.63;6128783;23;20002;-83
2021/07/16 07:10:38;;;;;;;16.08;3.90;;;;;;;18.42;65.87;102433.31;6121403;23;20093;-88
2021/07/16 07:13:07;;;;;;;18.52;4.22;;;;;;;18.42;63.62;102430.66;6129579;23;20410;-76
2021/07/16 07:15:35;;;;;;;21.80;4.97;;;;;;;18.74;63.75;102422.03;6128121;23;20061;-83
2021/07/16 07:18:02;;;;;;;16.80;4.93;;;;;;;19.55;61.74;102424.34;6127168;23;20136;-84
2021/07/16 07:20:30;;;;;;;18.25;3.20;;;;;;;20.23;59.11;102422.81;6102408;23;20022;-84
2021/07/16 07:22:56;;;;;;;22.45;4.78;;;;;;;20.08;58.94;102413.88;6128433;23;20029;-82
2021/07/16 07:25:22;;;;;;;15.82;3.67;;;;;;;19.93;59.40;102429.88;6127722;23;20516;-81
2021/07/16 07:27:47;;;;;;;19.23;3.80;;;;;;;19.76;60.57;102427.09;6127043;23;20028;-80
2021/07/16 07:30:13;;;;;;;21.60;4.05;;;;;;;19.39;62.65;102446.50;6128618;23;20393;-82
2021/07/16 07:32:39;;;;;;;17.30;3.70;;;;;;;19.15;62.84;102432.16;6128966;23;20010;-80
2021/07/16 07:35:07;;;;;;;29.08;5.38;;;;;;;18.99;64.35;102443.59;6127551;23;20002;-83
2021/07/16 07:37:33;;;;;;;23.50;4.38;;;;;;;19.01;64.39;102449.84;6102067;23;20084;-85
2021/07/16 07:40:19;;;;;;;22.10;4.40;;;;;;;18.81;63.40;102439.84;6127701;23;20002;-83
2021/07/16 07:42:44;;;;;;;19.27;3.67;;;;;;;18.23;63.68;102444.66;6127941;23;20030;-85
2021/07/16 07:45:15;;;;;;;13.13;4.25;;;;;;;18.19;63.89;102443.72;6127561;23;20012;-80
2021/07/16 07:47:41;;;;;;;18.88;4.35;;;;;;;18.36;64.89;102457.25;6127012;23;20014;-83
2021/07/16 07:50:10;;;;;;;18.92;3.95;;;;;;;18.28;64.99;102448.28;6127669;23;20028;-85
2021/07/16 07:52:35;;;;;;;20.92;4.65;;;;;;;18.51;64.96;102452.03;6126075;23;20006;-81
2021/07/16 07:55:01;;;;;;;18.80;3.72;;;;;;;18.71;64.02;102460.22;6127607;23;20013;-81
2021/07/16 07:57:37;;;;;;;18.63;3.75;;;;;;;18.84;63.01;102449.66;6126389;23;20065;-80
2021/07/16 08:00:13;;;;;;;20.35;4.88;;;;;;;19.07;61.84;102454.31;6127199;23;20002;-85
2021/07/16 08:02:42;;;;;;;16.10;3.63;;;;;;;19.35;61.02;102450.06;6127508;23;20014;-82
2021/07/16 08:05:27;;;;;;;20.85;4.35;;;;;;;19.27;61.38;102450.00;6128054;23;20026;-85
2021/07/16 08:07:55;;;;;;;23.13;5.38;;;;;;;19.50;63.65;102452.78;6127561;23;20002;-86
2021/07/16 08:10:22;;;;;;;29.40;5.25;;;;;;;19.10;61.86;102457.91;6128477;23;20009;-84
2021/07/16 08:13:08;;;;;;;20.75;4.65;;;;;;;19.10;60.98;102455.25;6102778;23;20081;-79
2021/07/16 08:15:37;;;;;;;17.33;3.78;;;;;;;19.13;61.45;102463.25;6127176;23;20425;-82
2021/07/16 08:18:03;;;;;;;22.67;4.10;;;;;;;19.03;62.57;102466.72;6125065;23;20441;-86
2021/07/16 08:20:29;;;;;;;22.52;5.28;;;;;;;19.16;63.30;102468.59;6127278;23;20081;-86
2021/07/16 08:22:54;;;;;;;16.08;4.07;;;;;;;19.35;61.07;102466.06;6126505;23;20322;-81
2021/07/16 08:25:20;;;;;;;19.13;4.72;;;;;;;19.51;60.34;102473.28;6126947;23;20009;-80
2021/07/16 08:27:46;;;;;;;22.33;4.80;;;;;;;19.63;63.13;102474.22;6127050;23;20005;-81
2021/07/16 08:30:14;;;;;;;24.73;4.68;;;;;;;19.36;61.24;102481.22;6129027;23;20315;-87
2021/07/16 08:33:00;;;;;;;19.65;4.43;;;;;;;19.26;61.23;102484.69;6128822;23;20053;-80
2021/07/16 08:35:25;;;;;;;29.83;5.20;;;;;;;19.09;62.71;102477.47;6126682;23;20016;-86
2021/07/16 08:37:51;;;;;;;18.50;4.40;;;;;;;18.96;63.25;102479.13;6123194;23;20002;-84
2021/07/16 08:40:16;;;;;;;26.48;4.53;;;;;;;18.91;63.69;102479.97;6125889;23;20082;-82
2021/07/16 08:42:46;;;;;;;23.70;4.70;;;;;;;18.80;63.18;102475.44;6127683;23;20393;-84
2021/07/16 08:45:11;;;;;;;19.65;4.43;;;;;;;19.18;64.29;102487.28;6127567;23;20115;-87
2021/07/16 08:47:42;;;;;;;19.80;4.47;;;;;;;19.34;62.28;102482.97;6125313;23;20001;-84
2021/07/16 08:50:31;;;;;;;17.27;4.20;;;;;;;19.25;65.17;102488.22;6102477;23;20017;-84
2021/07/16 08:53:02;;;;;;;22.48;5.20;;;;;;;19.03;62.65;102482.75;6126167;23;20061;-84
2021/07/16 08:55:48;;;;;;;26.42;5.28;;;;;;;18.68;63.48;102480.66;6125697;23;20024;-78
2021/07/16 08:58:15;;;;;;;27.45;5.78;;;;;;;18.93;64.46;102494.25;6127505;23;20088;-79
2021/07/16 09:00:58;;;;;;;20.63;4.07;;;;;;;19.21;62.39;102498.00;6126031;23;20069;-80
2021/07/16 09:04:23;;;;;;;18.80;5.20;;;;;;;20.11;60.50;102490.50;6128100;23;20010;-82
2021/07/16 09:06:57;;;;;;;14.05;3.65;;;;;;;20.60;59.28;102489.69;6126719;23;20032;-84
2021/07/16 09:09:40;;;;;;;20.65;4.65;;;;;;;20.11;60.12;102483.34;6124852;23;20010;-85
2021/07/16 09:12:34;;;;;;;21.67;4.38;;;;;;;19.82;60.91;102491.28;6127536;23;20005;-83
2021/07/16 09:15:07;;;;;;;22.92;4.53;;;;;;;19.78;62.14;102495.69;6128603;23;20032;-82
2021/07/16 09:17:34;;;;;;;12.90;3.92;;;;;;;20.55;58.55;102495.03;6126387;23;20574;-87
2021/07/16 09:20:00;;;;;;;16.50;3.67;;;;;;;20.70;56.99;102484.41;6128674;23;20013;-82
2021/07/16 09:22:25;;;;;;;24.08;5.22;;;;;;;20.49;58.24;102495.91;6128046;23;20006;-82
2021/07/16 09:25:11;;;;;;;25.33;4.85;;;;;;;20.24;59.02;102483.38;6128217;23;20449;-86
2021/07/16 09:27:42;;;;;;;19.38;4.22;;;;;;;20.48;59.86;102495.91;6124107;23;20010;-80
2021/07/16 09:30:14;;;;;;;17.88;4.18;;;;;;;20.74;57.47;102484.38;6126957;23;20088;-80
2021/07/16 09:33:02;;;;;;;21.40;4.13;;;;;;;21.26;55.69;102483.47;6126706;23;20018;-86
2021/07/16 09:35:51;;;;;;;21.17;4.82;;;;;;;21.67;55.63;102480.69;6123554;23;20356;-82
2021/07/16 09:38:39;;;;;;;18.77;4.82;;;;;;;21.77;53.10;102481.59;6121723;23;20419;-83
2021/07/16 09:41:48;;;;;;;;;;;;;;;;;;;;;
2021/07/16 09:44:13;;;;;;;16.27;3.75;;;;;;;23.50;51.28;102482.97;6120637;23;20073;-79
2021/07/16 09:47:01;;;;;;;18.55;5.85;;;;;;;22.69;53.30;102490.00;6124976;23;20105;-81
2021/07/16 09:49:37;;;;;;;20.42;4.70;;;;;;;22.00;53.78;102494.88;6124503;23;20010;-82
2021/07/16 09:52:12;;;;;;;28.45;6.10;;;;;;;21.52;55.74;102497.69;6125986;23;20002;-85
2021/07/16 09:58:45;;;;;;;22.33;4.57;;;;;;;22.96;51.22;102490.66;6106682;23;20014;-84
2021/07/16 10:01:37;;;;;;;16.40;4.30;;;;;;;23.32;51.03;102493.91;6126977;23;20421;-80
2021/07/16 10:04:16;;;;;;;28.48;4.68;;;;;;;23.46;50.48;102507.22;6127123;23;20125;-82
2021/07/16 10:06:42;;;;;;;23.27;4.72;;;;;;;23.06;50.50;102505.78;6125412;23;20013;-80
2021/07/16 10:09:24;;;;;;;19.48;4.78;;;;;;;22.10;52.77;102501.06;6125913;23;20410;-79
2021/07/16 10:12:15;;;;;;;20.83;5.82;;;;;;;22.17;54.56;102524.25;6126029;23;20006;-82
2021/07/16 10:14:48;;;;;;;15.38;4.40;;;;;;;22.86;51.88;102514.03;6127997;23;20006;-81
2021/07/16 10:17:14;;;;;;;22.08;4.50;;;;;;;22.62;51.50;102509.72;6126962;23;20009;-85
2021/07/16 10:19:59;;;;;;;17.08;4.70;;;;;;;22.51;52.36;102516.06;6125645;23;20057;-82
2021/07/16 10:22:26;;;;;;;17.38;3.72;;;;;;;23.32;51.07;102520.78;6125451;23;20033;-80
2021/07/16 10:24:52;;;;;;;21.33;4.93;;;;;;;24.52;49.17;102507.66;6126106;23;20006;-79
2021/07/16 10:28:13;;;;;;;17.02;4.63;;;;;;;24.97;47.27;102499.75;6128322;23;20017;-84
2021/07/16 10:30:40;;;;;;;21.65;4.88;;;;;;;24.81;47.52;102509.94;6126383;23;20050;-83
2021/07/16 10:33:09;;;;;;;25.60;5.10;;;;;;;24.70;46.88;102519.97;6127946;23;20010;-82
2021/07/16 10:36:06;;;;;;;19.80;4.28;;;;;;;25.19;46.30;102513.75;6127248;23;20101;-84
2021/07/16 10:38:40;;;;;;;15.68;3.72;;;;;;;25.62;46.84;102521.97;6126230;23;20025;-80
2021/07/16 10:41:53;;;;;;;17.75;4.25;;;;;;;26.10;43.90;102505.72;6127678;23;20014;-80
2021/07/16 10:44:48;;;;;;;18.45;4.70;;;;;;;26.04;45.76;102504.03;6126707;23;20085;-80
2021/07/16 10:48:04;;;;;;;20.85;4.13;;;;;;;25.48;45.02;102506.09;6113502;23;20045;-82
2021/07/16 10:50:38;;;;;;;15.75;4.05;;;;;;;25.74;45.64;102519.91;6062772;23;20016;-81
2021/07/16 10:53:08;;;;;;;17.75;5.03;;;;;;;25.87;47.81;102523.25;6097188;23;20018;-81
2021/07/16 10:55:36;;;;;;;15.38;4.32;;;;;;;26.70;43.32;102516.91;6124018;23;20014;-80
2021/07/16 10:58:43;;;;;;;21.08;5.00;;;;;;;27.43;42.25;102511.44;6125869;23;20002;-82
2021/07/16 11:01:47;;;;;;;19.45;5.03;;;;;;;26.22;42.16;102507.22;6126783;23;20084;-85
2021/07/16 11:04:35;;;;;;;21.73;3.95;;;;;;;25.46;43.84;102513.28;6120719;23;20013;-83
2021/07/16 11:07:00;;;;;;;19.50;4.68;;;;;;;25.58;44.31;102519.34;6125148;23;20009;-85
2021/07/16 11:13:28;;;;;;;16.40;4.80;;;;;;;26.50;42.27;102502.06;6098460;23;20138;-81
2021/07/16 11:15:53;;;;;;;17.10;4.43;;;;;;;26.86;40.72;102503.94;6127096;23;20010;-81
2021/07/16 11:18:28;;;;;;;18.50;4.63;;;;;;;26.90;42.11;102500.22;6125798;23;20037;-83
2021/07/16 11:21:34;;;;;;;22.05;4.88;;;;;;;27.01;43.62;102499.94;6126934;23;20438;-81
2021/07/16 11:24:40;;;;;;;15.60;4.32;;;;;;;26.47;46.87;102507.56;6126353;23;20429;-83
2021/07/16 11:27:19;;;;;;;20.63;4.65;;;;;;;26.89;45.54;102514.69;6127264;23;20463;-83
2021/07/16 11:30:13;;;;;;;27.13;5.50;;;;;;;25.50;46.83;102526.69;6124489;23;20054;-83
2021/07/16 11:32:39;;;;;;;25.20;4.95;;;;;;;25.18;47.39;102530.84;6125806;23;20437;-81
2021/07/16 11:35:37;;;;;;;21.48;5.63;;;;;;;25.12;46.25;102521.97;6102399;23;20013;-83
2021/07/16 11:38:27;;;;;;;18.75;5.53;;;;;;;25.30;47.55;102516.25;6128853;23;20013;-84
2021/07/16 11:41:28;;;;;;;22.20;5.47;;;;;;;25.32;46.55;102513.53;6127880;23;20032;-85
2021/07/16 11:44:05;;;;;;;23.83;5.18;;;;;;;24.94;46.89;102517.81;6104855;23;20050;-84
2021/07/16 11:47:20;;;;;;;20.42;5.07;;;;;;;25.66;45.19;102519.16;6119396;23;20137;-84
2021/07/16 11:49:53;;;;;;;18.10;4.47;;;;;;;25.50;46.14;102517.69;6122731;23;20018;-81
2021/07/16 11:52:27;;;;;;;23.63;5.25;;;;;;;25.69;45.52;102512.84;6126329;23;20006;-81